D/T METAR WX W/DIR W/SPE G/SPE TEMP DEWP
23/05/19 12:50 EGQK 231150Z AUTO 26022KT 9999 FEW044/// BKN050/// 12/07 Q1009 W (260°) 25.3mph 12°C 7°C
23/05/19 11:50 EGQK 231050Z AUTO 26017KT 9999 BKN042/// BKN050/// 11/07 Q1010 W (260°) 19.6mph 11°C 7°C
23/05/19 10:50 EGQK 230950Z AUTO 26017KT 9999 FEW029/// BKN044/// BKN070/// 11/08 Q1010 W (260°) 19.6mph 11°C 8°C
23/05/19 09:50 EGQK 230850Z AUTO 26017KT 9999 FEW018/// BKN025/// BKN030/// 10/08 Q1010 RERA W (260°) 19.6mph 10°C 8°C
23/05/19 08:50 EGQK 230750Z AUTO 27016KT 9999 BKN017/// BKN023/// 10/08 Q1010 RERA W (270°) 18.4mph 10°C 8°C
23/05/19 07:50 EGQK 230650Z AUTO 25012KT 9999 BKN023/// 10/08 Q1010 RERA WSW (250°) 13.8mph 10°C 8°C
23/05/19 06:50 EGQK 230550Z AUTO 25009KT 9999 -RA BKN024/// SCT033/// BKN050/// 10/08 Q1010 -RA WSW (250°) 10.4mph 10°C 8°C
23/05/19 05:50 EGQK 230450Z AUTO 25011KT 9999 RA SCT026/// BKN048/// 09/08 Q1010 RA WSW (250°) 12.7mph 9°C 8°C
23/05/19 04:50 EGQK 230350Z AUTO 25014KT 9999 -RADZ FEW027/// BKN050/// 10/08 Q1010 -RA -DZ WSW (250°) 16.1mph 10°C 8°C
23/05/19 03:50 EGQK 230250Z AUTO 25013KT 9999 -RA SCT027/// BKN050/// 10/08 Q1010 -RA WSW (250°) 15.0mph 10°C 8°C
23/05/19 02:50 EGQK 230150Z AUTO 25012KT 9999 -RA SCT024/// BKN048/// 10/08 Q1011 -RA WSW (250°) 13.8mph 10°C 8°C
23/05/19 01:50 EGQK 230050Z AUTO 25013KT 9999 -RADZ BKN021/// BKN045/// 10/08 Q1011 -RA -DZ WSW (250°) 15.0mph 10°C 8°C
23/05/19 00:50 EGQK 222350Z AUTO 25010KT 9999 -RADZ BKN025/// BKN045/// 10/08 Q1012 -RA -DZ WSW (250°) 11.5mph 10°C 8°C
22/05/19 23:50 EGQK 222250Z AUTO 29013KT 9999 FEW018/// SCT026/// BKN036/// 10/08 Q1012 WNW (290°) 15.0mph 10°C 8°C
22/05/19 22:50 EGQK 222150Z AUTO 28015KT 9999 FEW020/// BKN036/// 10/08 Q1012 RERA W (280°) 17.3mph 10°C 8°C
22/05/19 21:50 EGQK 222050Z AUTO 28013KT 9999 SCT024/// BKN031/// 11/08 Q1013 RERA W (280°) 15.0mph 11°C 8°C
22/05/19 20:50 EGQK 221950Z AUTO 29014KT 9999 -RADZ SCT024/// BKN039/// 11/08 Q1013 -RA -DZ WNW (290°) 16.1mph 11°C 8°C
22/05/19 19:50 EGQK 221850Z AUTO 29014KT 9999 FEW037/// BKN042/// 11/07 Q1013 RERA WNW (290°) 16.1mph 11°C 7°C
22/05/19 18:50 EGQK 221750Z AUTO 29016KT 9999 -RA FEW035/// BKN050/// 11/07 Q1013 -RA WNW (290°) 18.4mph 11°C 7°C
22/05/19 17:50 EGQK 221650Z AUTO 28017KT 9999 FEW033/// BKN044/// 12/08 Q1013 W (280°) 19.6mph 12°C 8°C
22/05/19 16:50 EGQK 221550Z AUTO 29014KT 9999 BKN035/// BKN046/// 11/08 Q1013 WNW (290°) 16.1mph 11°C 8°C
22/05/19 15:50 EGQK 221450Z AUTO 28014KT 9999 FEW036/// BKN041/// 12/09 Q1013 RERA W (280°) 16.1mph 12°C 9°C
22/05/19 14:50 EGQK 221350Z AUTO 29015KT 9999 BKN039/// BKN048/// 12/09 Q1014 WNW (290°) 17.3mph 12°C 9°C
22/05/19 13:50 EGQK 221250Z AUTO 28015KT 9999 BKN034/// BKN050/// 12/10 Q1014 W (280°) 17.3mph 12°C 10°C
22/05/19 12:50 EGQK 221150Z AUTO 28015KT 9999 SCT031/// SCT041/// BKN060/// 12/10 Q1014 W (280°) 17.3mph 12°C 10°C
22/05/19 11:50 EGQK 221050Z AUTO 29012KT 9999 BKN009/// BKN032/// 11/10 Q1014 RERA WNW (290°) 13.8mph 11°C 10°C
22/05/19 10:50 EGQK 220950Z AUTO 25009KT 4500 RADZ BKN013/// SCT020/// 10/10 Q1014 RA DZ WSW (250°) 10.4mph 10°C 10°C
22/05/19 09:50 EGQK 220850Z AUTO 25012KT 6000 RA BKN014/// BKN024/// 09/08 Q1014 RA WSW (250°) 13.8mph 9°C 8°C
22/05/19 08:50 EGQK 220750Z AUTO 25011KT 9999 -RA BKN013/// BKN021/// 09/08 Q1014 -RA WSW (250°) 12.7mph 9°C 8°C
22/05/19 07:50 EGQK 220650Z AUTO 25011KT 9999 -DZ BKN012/// 08/08 Q1014 -DZ WSW (250°) 12.7mph 8°C 8°C
22/05/19 06:50 EGQK 220550Z AUTO 25012KT 9999 -RA OVC017/// 08/07 Q1015 -RA WSW (250°) 13.8mph 8°C 7°C
22/05/19 05:50 EGQK 220450Z AUTO 23011KT 9999 -RA OVC022/// 08/07 Q1015 -RA SW (230°) 12.7mph 8°C 7°C
22/05/19 04:50 EGQK 220350Z AUTO 24012KT 9999 -RA BKN024/// 08/06 Q1015 -RA WSW (240°) 13.8mph 8°C 6°C
22/05/19 03:50 EGQK 220250Z AUTO 23012KT 8000 -RA SCT030/// BKN034/// BKN050/// 08/06 Q1016 -RA SW (230°) 13.8mph 8°C 6°C
22/05/19 02:50 EGQK 220150Z AUTO 24010KT 9999 RA SCT030/// BKN048/// 08/06 Q1016 RA WSW (240°) 11.5mph 8°C 6°C
22/05/19 01:50 EGQK 220050Z AUTO 24011KT 9999 SCT033/// OVC048/// 09/05 Q1017 WSW (240°) 12.7mph 9°C 5°C
22/05/19 00:50 EGQK 212350Z AUTO 24008KT 9999 BKN050/// 08/05 Q1017 WSW (240°) 9.2mph 8°C 5°C
21/05/19 23:50 EGQK 212250Z AUTO 24006KT 9999 FEW030/// 08/05 Q1017 WSW (240°) 6.9mph 8°C 5°C
21/05/19 22:50 EGQK 212150Z AUTO 28010KT 9999 NCD 08/05 Q1018 W (280°) 11.5mph 8°C 5°C
21/05/19 21:50 EGQK 212050Z AUTO 30012KT 9999 NCD 09/05 Q1018 WNW (300°) 13.8mph 9°C 5°C
21/05/19 20:50 EGQK 211950Z AUTO 30012KT 9999 FEW050/// 10/05 Q1018 WNW (300°) 13.8mph 10°C 5°C
21/05/19 19:50 EGQK 211850Z AUTO 30012KT 9999 FEW042/// BKN050/// 12/06 Q1017 RERA WNW (300°) 13.8mph 12°C 6°C
21/05/19 18:50 EGQK 211750Z AUTO 23005KT 9999 RADZ FEW026/// BKN037/// BKN048/// 12/08 Q1017 RA DZ SW (230°) 5.8mph 12°C 8°C
21/05/19 17:50 EGQK 211650Z AUTO 27006KT 9999 RA SCT033/// BKN048/// 11/08 Q1017 RA W (270°) 6.9mph 11°C 8°C
21/05/19 16:50 EGQK 211550Z AUTO 35005KT 9999 FEW050/// BKN080/// 13/07 Q1017 RERA N (350°) 5.8mph 13°C 7°C
21/05/19 15:50 EGQK 211450Z AUTO 33009KT 9999 SCT045/// 13/08 Q1018 NNW (330°) 10.4mph 13°C 8°C
21/05/19 14:50 EGQK 211350Z AUTO 26004KT 9999 BKN045/// 14/10 Q1017 RERA W (260°) 4.6mph 14°C 10°C
21/05/19 13:50 EGQK 211250Z AUTO 27009KT 9999 -RA FEW033/// BKN046/// 13/09 Q1018 -RA W (270°) 10.4mph 13°C 9°C